Time;durP1;ratioP1;P1;durP2;ratioP2;P2;SDS_P1;SDS_P2;PMS_P1;PMS_P2;Temp;Humidity;BMP_temperature;BMP_pressure;BME280_temperature;BME280_humidity;BME280_pressure;Samples;Min_cycle;Max_cycle;Signal;HPM_P1;HPM_P2
2023/12/27 00:01:47;;;;;;;17.40;5.25;;;;;;;4.21;100.00;101639.56;5057419;28;20056;-64
2023/12/27 00:04:13;;;;;;;10.40;4.85;;;;;;;4.13;100.00;101636.75;5056178;28;20080;-64
2023/12/27 00:06:39;;;;;;;14.00;4.05;;;;;;;4.09;100.00;101640.03;5055262;28;20042;-64
2023/12/27 00:09:05;;;;;;;15.10;4.80;;;;;;;4.07;100.00;101634.00;5057785;28;20036;-64
2023/12/27 00:11:30;;;;;;;11.40;4.78;;;;;;;4.07;100.00;101644.22;5052894;28;20489;-64
2023/12/27 00:13:55;;;;;;;10.65;4.93;;;;;;;4.07;100.00;101645.09;5055356;28;20028;-64
2023/12/27 00:16:21;;;;;;;12.57;4.45;;;;;;;4.06;100.00;101645.91;5056448;28;20093;-64
2023/12/27 00:18:46;;;;;;;8.82;3.58;;;;;;;4.08;100.00;101653.66;5056491;28;20601;-63
2023/12/27 00:21:11;;;;;;;16.80;5.03;;;;;;;4.07;100.00;101657.88;5057713;28;20036;-64
2023/12/27 00:23:37;;;;;;;18.95;6.25;;;;;;;4.08;100.00;101651.09;5053694;28;20067;-64
2023/12/27 00:26:02;;;;;;;15.48;5.47;;;;;;;4.12;100.00;101649.50;5055794;28;20087;-63
2023/12/27 00:28:28;;;;;;;20.15;6.30;;;;;;;4.09;100.00;101647.72;5056645;28;20036;-64
2023/12/27 00:30:53;;;;;;;16.88;5.85;;;;;;;4.13;100.00;101644.41;5054535;28;20501;-64
2023/12/27 00:33:19;;;;;;;20.23;6.78;;;;;;;4.14;100.00;101648.72;5056573;28;20047;-64
2023/12/27 00:35:44;;;;;;;15.80;5.03;;;;;;;4.18;100.00;101647.13;5058443;28;20048;-64
2023/12/27 00:38:10;;;;;;;17.17;5.15;;;;;;;4.16;100.00;101646.19;5057187;28;20119;-63
2023/12/27 00:40:35;;;;;;;14.23;4.63;;;;;;;4.14;100.00;101648.72;5042517;28;20094;-58
2023/12/27 00:43:00;;;;;;;13.65;5.75;;;;;;;4.13;100.00;101641.88;5043820;28;20035;-59
2023/12/27 00:45:26;;;;;;;10.18;4.00;;;;;;;4.09;100.00;101637.50;5055026;28;20051;-61
2023/12/27 00:47:51;;;;;;;11.20;3.85;;;;;;;4.06;100.00;101633.13;5054826;28;20043;-64
2023/12/27 00:50:17;;;;;;;11.85;4.57;;;;;;;4.04;100.00;101642.44;5056526;28;20143;-64
2023/12/27 00:52:42;;;;;;;15.93;5.30;;;;;;;4.01;100.00;101632.13;5056294;28;20056;-63
2023/12/27 00:55:08;;;;;;;13.73;4.45;;;;;;;3.96;100.00;101620.00;5052093;28;20463;-64
2023/12/27 00:57:33;;;;;;;13.27;4.10;;;;;;;3.91;100.00;101616.44;5052857;28;20563;-64
2023/12/27 00:59:59;;;;;;;8.63;4.22;;;;;;;3.83;100.00;101623.84;5055658;28;20036;-64
2023/12/27 01:02:25;;;;;;;10.43;4.28;;;;;;;3.81;100.00;101629.72;5056211;28;20046;-64
2023/12/27 01:04:52;;;;;;;8.55;4.50;;;;;;;3.77;100.00;101630.44;5056082;28;20028;-64
2023/12/27 01:07:18;;;;;;;11.52;4.90;;;;;;;3.74;100.00;101625.22;5057144;28;20025;-64
2023/12/27 01:09:43;;;;;;;12.80;4.28;;;;;;;3.72;100.00;101632.00;5053783;28;20040;-64
2023/12/27 01:12:09;;;;;;;11.40;4.18;;;;;;;3.73;100.00;101632.06;5057559;28;20036;-64
2023/12/27 01:14:34;;;;;;;10.77;4.35;;;;;;;3.73;100.00;101623.50;5055382;28;20044;-64
2023/12/27 01:17:00;;;;;;;16.42;4.85;;;;;;;3.73;100.00;101626.06;5055055;28;20123;-64
2023/12/27 01:19:25;;;;;;;11.52;3.90;;;;;;;3.73;100.00;101623.50;5052810;28;20453;-64
2023/12/27 01:21:50;;;;;;;16.05;5.32;;;;;;;3.75;100.00;101621.88;5056369;28;20046;-64
2023/12/27 01:24:15;;;;;;;8.98;3.95;;;;;;;3.80;100.00;101620.31;5054649;28;20036;-64
2023/12/27 01:26:41;;;;;;;12.10;4.55;;;;;;;3.89;100.00;101620.63;5056111;28;20497;-64
2023/12/27 01:29:06;;;;;;;11.82;4.53;;;;;;;3.95;100.00;101614.00;5055033;28;20090;-64
2023/12/27 01:31:31;;;;;;;13.30;4.60;;;;;;;4.02;100.00;101613.41;5054716;28;20119;-64
2023/12/27 01:33:57;;;;;;;18.55;5.63;;;;;;;4.06;100.00;101610.09;5057464;28;20060;-64
2023/12/27 01:36:22;;;;;;;14.80;4.40;;;;;;;4.13;100.00;101606.03;5056525;28;20146;-64
2023/12/27 01:38:48;;;;;;;17.23;4.50;;;;;;;4.19;100.00;101601.13;5057081;28;20566;-64
2023/12/27 01:41:13;;;;;;;14.52;4.60;;;;;;;4.27;100.00;101593.69;5056062;28;20033;-64
2023/12/27 01:43:39;;;;;;;10.07;3.83;;;;;;;4.34;100.00;101605.81;5056923;28;20040;-64
2023/12/27 01:46:05;;;;;;;20.20;4.18;;;;;;;4.44;100.00;101608.72;5055402;28;20043;-64
2023/12/27 01:48:30;;;;;;;15.07;4.53;;;;;;;4.50;100.00;101603.78;5053574;28;20066;-64
2023/12/27 01:50:57;;;;;;;15.57;3.95;;;;;;;4.55;100.00;101609.03;5055267;28;20040;-64
2023/12/27 01:53:24;;;;;;;13.05;4.82;;;;;;;4.60;100.00;101618.56;5055776;28;20044;-64
2023/12/27 01:55:51;;;;;;;14.60;4.00;;;;;;;4.65;100.00;101617.03;5056271;28;20104;-64
2023/12/27 01:58:17;;;;;;;17.25;5.03;;;;;;;4.70;100.00;101616.28;5053008;28;20443;-64
2023/12/27 02:00:44;;;;;;;14.02;5.57;;;;;;;4.72;100.00;101619.75;5054812;28;20553;-64
2023/12/27 02:03:11;;;;;;;15.57;4.57;;;;;;;4.68;100.00;101619.66;5058890;28;20032;-63
2023/12/27 02:05:37;;;;;;;13.43;4.20;;;;;;;4.70;100.00;101618.84;5049828;28;20039;-64
2023/12/27 02:08:03;;;;;;;10.77;4.55;;;;;;;4.72;100.00;101617.19;5052326;28;20033;-64
2023/12/27 02:10:29;;;;;;;16.17;4.55;;;;;;;4.74;100.00;101615.56;5057316;28;20032;-60
2023/12/27 02:12:54;;;;;;;11.77;4.18;;;;;;;4.78;100.00;101622.47;5054714;28;20060;-61
2023/12/27 02:15:20;;;;;;;15.35;4.40;;;;;;;4.82;100.00;101619.19;5052081;28;20114;-61
2023/12/27 02:17:45;;;;;;;11.98;4.38;;;;;;;4.85;100.00;101609.03;5053447;28;20045;-61
2023/12/27 02:20:11;;;;;;;11.98;4.00;;;;;;;4.83;100.00;101609.00;5050045;28;20067;-63
2023/12/27 02:22:39;;;;;;;13.90;4.95;;;;;;;4.85;100.00;101620.16;5053307;28;20029;-64
2023/12/27 02:25:05;;;;;;;9.73;3.97;;;;;;;4.88;100.00;101611.69;5052204;28;20040;-62
2023/12/27 02:27:30;;;;;;;12.80;4.70;;;;;;;4.86;100.00;101608.22;5054874;28;20044;-61
2023/12/27 02:29:56;;;;;;;20.52;4.50;;;;;;;4.84;100.00;101613.28;5055704;28;20048;-62
2023/12/27 02:32:21;;;;;;;16.60;4.32;;;;;;;4.82;100.00;101611.50;5055404;28;20410;-61
2023/12/27 02:34:46;;;;;;;11.38;3.70;;;;;;;4.77;100.00;101608.84;5055276;28;20041;-61
2023/12/27 02:37:12;;;;;;;12.13;3.53;;;;;;;4.68;100.00;101608.56;5053118;28;20040;-61
2023/12/27 02:39:37;;;;;;;10.98;4.22;;;;;;;4.59;100.00;101600.63;5054916;28;20040;-61
2023/12/27 02:42:03;;;;;;;13.32;4.00;;;;;;;4.51;100.00;101592.69;5054096;28;20505;-59
2023/12/27 02:44:28;;;;;;;13.98;4.32;;;;;;;4.45;100.00;101583.97;5054268;28;20097;-61
2023/12/27 02:46:53;;;;;;;12.60;3.72;;;;;;;4.41;100.00;101580.47;5060859;28;20028;-61
2023/12/27 02:49:19;;;;;;;17.77;4.32;;;;;;;4.38;100.00;101580.38;5060010;28;20127;-60
2023/12/27 02:51:44;;;;;;;18.73;4.13;;;;;;;4.36;100.00;101582.00;5059020;28;20117;-61
2023/12/27 02:54:10;;;;;;;12.60;4.57;;;;;;;4.34;100.00;101583.66;5058440;28;20603;-61
2023/12/27 02:56:35;;;;;;;12.80;3.70;;;;;;;4.36;100.00;101566.66;5058585;28;20045;-61
2023/12/27 02:59:01;;;;;;;22.25;6.13;;;;;;;4.41;100.00;101569.38;5057426;28;20032;-61
2023/12/27 03:01:26;;;;;;;12.82;3.53;;;;;;;4.39;100.00;101571.03;5059988;28;20033;-60
2023/12/27 03:03:51;;;;;;;12.85;3.75;;;;;;;4.40;100.00;101567.63;5061237;28;20505;-61
2023/12/27 03:06:17;;;;;;;11.95;3.42;;;;;;;4.41;100.00;101554.00;5059802;28;20033;-61
2023/12/27 03:08:42;;;;;;;10.98;3.47;;;;;;;4.51;100.00;101561.09;5062097;28;20459;-60
2023/12/27 03:11:08;;;;;;;16.13;4.45;;;;;;;4.53;100.00;101556.91;5063261;28;20501;-60
2023/12/27 03:13:34;;;;;;;12.50;3.88;;;;;;;4.61;100.00;101558.00;5061897;28;20043;-61
2023/12/27 03:16:06;;;;;;;22.08;6.25;;;;;;;4.77;100.00;101547.38;5060511;28;20834;-60
2023/12/27 03:18:35;;;;;;;18.30;4.07;;;;;;;4.87;100.00;101544.22;5059023;28;20028;-61
2023/12/27 03:21:00;;;;;;;13.10;4.32;;;;;;;4.87;100.00;101549.34;5062172;28;20127;-61
2023/12/27 03:23:25;;;;;;;9.82;3.42;;;;;;;4.89;100.00;101546.84;5059695;28;20143;-61
2023/12/27 03:25:51;;;;;;;9.35;3.53;;;;;;;4.92;100.00;101546.91;5063580;28;20035;-61
2023/12/27 03:28:16;;;;;;;15.52;4.30;;;;;;;4.94;100.00;101546.13;5066852;28;20039;-60
2023/12/27 03:30:41;;;;;;;16.40;4.30;;;;;;;5.02;100.00;101539.50;5061450;28;20044;-64
2023/12/27 03:33:07;;;;;;;10.18;3.17;;;;;;;5.05;100.00;101544.72;5061646;28;20032;-64
2023/12/27 03:35:32;;;;;;;19.52;4.13;;;;;;;5.08;100.00;101534.53;5062790;28;20051;-64
2023/12/27 03:37:58;;;;;;;9.05;3.60;;;;;;;5.12;100.00;101526.13;5047062;28;20047;-64
2023/12/27 03:40:23;;;;;;;10.23;3.58;;;;;;;5.14;100.00;101524.44;5044807;28;20641;-59
2023/12/27 03:42:49;;;;;;;12.35;4.35;;;;;;;5.17;100.00;101529.66;5062327;28;20036;-59
2023/12/27 03:45:14;;;;;;;15.15;4.10;;;;;;;5.18;100.00;101533.97;5060679;28;20607;-59
2023/12/27 03:47:39;;;;;;;15.40;4.57;;;;;;;5.17;100.00;101529.66;5059371;28;20040;-59
2023/12/27 03:50:05;;;;;;;12.75;4.20;;;;;;;5.14;100.00;101518.44;5056369;28;20111;-61
2023/12/27 03:52:30;;;;;;;12.50;4.25;;;;;;;5.13;100.00;101520.13;5061060;28;20487;-59
2023/12/27 03:54:56;;;;;;;15.57;5.03;;;;;;;5.11;100.00;101519.25;5058360;28;20830;-59
2023/12/27 03:57:23;;;;;;;16.55;5.15;;;;;;;5.10;100.00;101514.94;5061752;28;20532;-59
2023/12/27 03:59:48;;;;;;;13.93;4.50;;;;;;;5.11;100.00;101513.25;5061931;28;20513;-59
2023/12/27 04:02:14;;;;;;;17.80;4.68;;;;;;;5.11;100.00;101510.69;5061621;28;20048;-59
2023/12/27 04:04:39;;;;;;;18.75;4.65;;;;;;;5.13;100.00;101506.50;5058446;28;20044;-60
2023/12/27 04:07:05;;;;;;;16.08;4.80;;;;;;;5.15;100.00;101494.56;5067872;28;20040;-61
2023/12/27 04:09:30;;;;;;;16.75;4.93;;;;;;;5.15;100.00;101495.44;5061681;28;20047;-61
2023/12/27 04:11:55;;;;;;;18.17;4.90;;;;;;;5.15;100.00;101492.00;5058576;28;20886;-62
2023/12/27 04:14:21;;;;;;;16.10;4.88;;;;;;;5.15;100.00;101482.63;5062536;28;20048;-62
2023/12/27 04:16:46;;;;;;;11.55;4.20;;;;;;;5.14;100.00;101487.69;5062795;28;20044;-61
2023/12/27 04:19:11;;;;;;;14.75;5.35;;;;;;;5.12;100.00;101482.56;5059893;28;20045;-60
2023/12/27 04:21:37;;;;;;;18.33;6.90;;;;;;;5.12;100.00;101489.38;5062752;28;20904;-59
2023/12/27 04:24:02;;;;;;;14.70;4.95;;;;;;;5.13;100.00;101483.44;5063077;28;20041;-59
2023/12/27 04:26:28;;;;;;;13.20;4.97;;;;;;;5.13;100.00;101486.81;5060183;28;20139;-59
2023/12/27 04:28:53;;;;;;;15.55;4.70;;;;;;;5.14;100.00;101480.00;5040410;28;20463;-59
2023/12/27 04:31:18;;;;;;;16.23;5.82;;;;;;;5.14;100.00;101480.00;5058397;28;20741;-59
2023/12/27 04:33:44;;;;;;;11.38;4.70;;;;;;;5.15;100.00;101477.50;5043975;28;20036;-59
2023/12/27 04:36:09;;;;;;;13.80;4.35;;;;;;;5.20;100.00;101473.34;5044231;28;20043;-59
2023/12/27 04:38:34;;;;;;;10.68;4.82;;;;;;;5.23;100.00;101467.44;5061217;28;20039;-59
2023/12/27 04:41:06;;;;;;;14.32;4.60;;;;;;;5.29;100.00;101467.56;5059158;28;20119;-59
2023/12/27 04:43:32;;;;;;;15.98;3.88;;;;;;;5.33;100.00;101469.41;5059362;28;20044;-59
2023/12/27 04:45:57;;;;;;;10.95;3.95;;;;;;;5.35;100.00;101460.03;5060487;28;20040;-59
2023/12/27 04:48:22;;;;;;;14.00;3.70;;;;;;;5.40;100.00;101461.00;5061531;28;20515;-59
2023/12/27 04:50:47;;;;;;;14.48;3.80;;;;;;;5.41;100.00;101447.38;5054300;28;20075;-59
2023/12/27 04:53:13;;;;;;;16.05;3.80;;;;;;;5.44;100.00;101455.13;5059659;28;20048;-59
2023/12/27 04:55:38;;;;;;;15.57;4.00;;;;;;;5.48;100.00;101448.38;5057928;28;20111;-59
2023/12/27 04:58:03;;;;;;;15.45;4.45;;;;;;;5.50;100.00;101450.13;5057769;28;20071;-59
2023/12/27 05:00:29;;;;;;;16.15;4.57;;;;;;;5.53;100.00;101454.47;5037930;28;20629;-61
2023/12/27 05:02:54;;;;;;;9.15;3.45;;;;;;;5.55;100.00;101457.91;5050915;28;20067;-61
2023/12/27 05:05:20;;;;;;;13.82;4.30;;;;;;;5.59;100.00;101455.47;5055281;28;20045;-61
2023/12/27 05:07:46;;;;;;;11.32;4.63;;;;;;;5.64;100.00;101455.56;5056707;28;20032;-61
2023/12/27 05:10:12;;;;;;;16.10;4.20;;;;;;;5.68;100.00;101448.00;5056742;28;20488;-61
2023/12/27 05:12:37;;;;;;;10.43;3.78;;;;;;;5.72;100.00;101452.34;5052126;28;20036;-61
2023/12/27 05:15:03;;;;;;;14.77;4.00;;;;;;;5.77;100.00;101450.75;5056462;28;20131;-61
2023/12/27 05:17:28;;;;;;;18.52;5.00;;;;;;;5.81;100.00;101449.13;5054147;28;20516;-62
2023/12/27 05:19:54;;;;;;;12.52;4.55;;;;;;;5.82;100.00;101450.84;5054779;28;20622;-61
2023/12/27 05:22:20;;;;;;;11.55;4.20;;;;;;;5.84;100.00;101463.72;5056570;28;20032;-61
2023/12/27 05:24:46;;;;;;;13.48;4.68;;;;;;;5.87;100.00;101461.22;5054050;28;20099;-61
2023/12/27 05:27:12;;;;;;;12.45;4.43;;;;;;;5.91;100.00;101457.88;5038967;28;20513;-61
2023/12/27 05:29:38;;;;;;;11.95;4.05;;;;;;;5.92;100.00;101460.47;5055944;28;20686;-61
2023/12/27 05:32:04;;;;;;;10.95;4.03;;;;;;;5.95;100.00;101462.25;5052945;28;21569;-62
2023/12/27 05:34:29;;;;;;;11.55;4.10;;;;;;;5.95;100.00;101450.28;5054705;28;20785;-62
2023/12/27 05:36:55;;;;;;;12.25;4.05;;;;;;;5.98;100.00;101440.09;5054708;28;20066;-59
2023/12/27 05:39:20;;;;;;;9.80;4.00;;;;;;;6.00;100.00;101440.97;5054154;28;20060;-59
2023/12/27 05:41:45;;;;;;;12.60;4.55;;;;;;;6.01;100.00;101435.03;5056517;28;20036;-59
2023/12/27 05:44:11;;;;;;;11.13;4.30;;;;;;;6.02;100.00;101426.47;5055779;28;20032;-59
2023/12/27 05:46:36;;;;;;;11.50;5.10;;;;;;;6.03;100.00;101419.63;5057813;28;20401;-60
2023/12/27 05:49:02;;;;;;;13.40;4.85;;;;;;;6.07;100.00;101421.44;5058530;28;20093;-61
2023/12/27 05:51:28;;;;;;;12.95;4.90;;;;;;;6.09;100.00;101425.78;5059650;28;20037;-59
2023/12/27 05:53:53;;;;;;;20.17;6.63;;;;;;;6.10;100.00;101422.38;5054579;28;20483;-59
2023/12/27 05:56:19;;;;;;;10.25;4.93;;;;;;;6.14;100.00;101418.19;5051290;28;20036;-59
2023/12/27 05:58:44;;;;;;;12.60;4.82;;;;;;;6.15;100.00;101417.31;5055654;28;20102;-60
2023/12/27 06:01:10;;;;;;;10.18;4.47;;;;;;;6.16;100.00;101427.63;5051784;28;20584;-59
2023/12/27 06:03:35;;;;;;;14.65;5.15;;;;;;;6.20;100.00;101424.28;5051107;28;20082;-59
2023/12/27 06:06:03;;;;;;;13.05;5.60;;;;;;;6.26;100.00;101419.25;5054158;28;20044;-59
2023/12/27 06:08:29;;;;;;;11.60;4.85;;;;;;;6.31;100.00;101416.81;5055286;28;20044;-59
2023/12/27 06:10:54;;;;;;;13.57;5.07;;;;;;;6.35;100.00;101419.44;5052771;28;20544;-59
2023/12/27 06:13:19;;;;;;;15.65;5.80;;;;;;;6.41;100.00;101412.72;5052872;28;20044;-60
2023/12/27 06:15:45;;;;;;;17.67;5.50;;;;;;;6.47;100.00;101413.66;5053229;28;20052;-59
2023/12/27 06:18:10;;;;;;;14.85;5.13;;;;;;;6.50;100.00;101400.00;5051307;28;20045;-59
2023/12/27 06:20:36;;;;;;;15.13;5.32;;;;;;;6.55;100.00;101400.97;5049844;28;20076;-59
2023/12/27 06:23:01;;;;;;;10.40;5.53;;;;;;;6.61;100.00;101398.53;5055351;28;20105;-59
2023/12/27 06:25:27;;;;;;;12.43;4.70;;;;;;;6.69;100.00;101399.50;5036004;28;20048;-59
2023/12/27 06:27:52;;;;;;;16.48;5.50;;;;;;;6.72;100.00;101390.16;5051248;28;20336;-59
2023/12/27 06:30:18;;;;;;;19.95;4.90;;;;;;;6.79;100.00;101391.97;5053906;28;20666;-59
2023/12/27 06:32:43;;;;;;;15.63;5.22;;;;;;;6.83;100.00;101388.63;5054773;28;20812;-59
2023/12/27 06:35:09;;;;;;;12.68;5.15;;;;;;;6.89;100.00;101391.31;5054221;28;20040;-60
2023/12/27 06:37:34;;;;;;;18.38;4.97;;;;;;;6.98;100.00;101379.44;5053678;28;20104;-59
2023/12/27 06:39:59;;;;;;;12.63;4.55;;;;;;;7.01;100.00;101376.91;5052527;28;20500;-59
2023/12/27 06:42:25;;;;;;;16.83;5.20;;;;;;;7.05;100.00;101378.69;5056678;28;20764;-59
2023/12/27 06:44:50;;;;;;;13.27;5.05;;;;;;;7.09;100.00;101375.34;5052103;28;20044;-60
2023/12/27 06:47:15;;;;;;;12.57;4.20;;;;;;;7.15;100.00;101380.59;5052668;28;20032;-59
2023/12/27 06:49:41;;;;;;;13.70;4.30;;;;;;;7.21;100.00;101380.72;5050650;28;20037;-59
2023/12/27 06:52:06;;;;;;;13.32;4.90;;;;;;;7.27;100.00;101381.63;5051303;28;20060;-59
2023/12/27 06:54:31;;;;;;;13.90;4.35;;;;;;;7.31;100.00;101372.28;5051995;28;20037;-59
2023/12/27 06:56:59;;;;;;;13.63;4.30;;;;;;;7.33;100.00;101370.56;5053091;28;20055;-59
2023/12/27 06:59:25;;;;;;;14.02;4.32;;;;;;;7.37;100.00;101367.22;5053104;28;20102;-64
2023/12/27 07:01:50;;;;;;;14.90;4.55;;;;;;;7.37;100.00;101362.06;5061291;28;20023;-64
2023/12/27 07:04:16;;;;;;;8.50;4.30;;;;;;;7.39;100.00;101365.53;5059798;28;20067;-64
2023/12/27 07:06:41;;;;;;;13.82;3.95;;;;;;;7.43;100.00;101359.59;5055636;28;20551;-64
2023/12/27 07:09:07;;;;;;;10.50;4.03;;;;;;;7.45;100.00;101347.59;5055986;28;20043;-64
2023/12/27 07:11:32;;;;;;;8.95;4.07;;;;;;;7.49;100.00;101325.38;5045143;28;20052;-64
2023/12/27 07:13:57;;;;;;;12.13;3.78;;;;;;;7.50;100.00;101322.81;5058623;28;20060;-65
2023/12/27 07:16:23;;;;;;;11.57;5.07;;;;;;;7.51;100.00;101324.53;5055973;28;20143;-64
2023/12/27 07:18:48;;;;;;;7.03;3.45;;;;;;;7.53;100.00;101322.88;5055129;28;20039;-65
2023/12/27 07:21:14;;;;;;;5.88;3.30;;;;;;;7.56;100.00;101316.91;5057779;28;20033;-64
2023/12/27 07:23:39;;;;;;;9.00;3.80;;;;;;;7.61;100.00;101313.53;5057442;28;20531;-64
2023/12/27 07:26:04;;;;;;;13.75;3.88;;;;;;;7.67;100.00;101311.03;5056744;28;20032;-64
2023/12/27 07:28:30;;;;;;;10.73;4.28;;;;;;;7.70;100.00;101313.63;5058613;28;20036;-64
2023/12/27 07:30:57;;;;;;;10.63;4.55;;;;;;;7.73;100.00;101313.69;5056618;28;20457;-64
2023/12/27 07:33:23;;;;;;;8.32;3.80;;;;;;;7.79;100.00;101313.75;5057374;28;20040;-64
2023/12/27 07:35:48;;;;;;;7.50;2.92;;;;;;;7.81;100.00;101309.47;5058102;28;20044;-65
2023/12/27 07:38:13;;;;;;;10.88;3.90;;;;;;;7.86;100.00;101297.50;5056170;28;20028;-65
2023/12/27 07:40:41;;;;;;;8.10;3.45;;;;;;;7.89;100.00;101300.13;5059043;28;20032;-64
2023/12/27 07:43:08;;;;;;;12.60;3.85;;;;;;;7.96;100.00;101304.50;5058165;28;20144;-65
2023/12/27 07:45:34;;;;;;;10.60;3.13;;;;;;;7.99;100.00;101296.81;5054876;28;20036;-65
2023/12/27 07:47:59;;;;;;;8.13;3.25;;;;;;;8.05;100.00;101298.59;5054755;28;20048;-65
2023/12/27 07:50:24;;;;;;;11.43;4.13;;;;;;;8.07;100.00;101299.44;5057487;28;20109;-64
2023/12/27 07:52:50;;;;;;;15.38;3.85;;;;;;;8.15;100.00;101305.56;5058320;28;20028;-65
2023/12/27 07:55:15;;;;;;;10.52;3.53;;;;;;;8.21;100.00;101312.47;5058054;28;20037;-65
2023/12/27 07:57:41;;;;;;;7.15;3.63;;;;;;;8.24;100.00;101321.09;5052391;28;20485;-65
2023/12/27 08:00:08;;;;;;;8.95;4.03;;;;;;;8.29;100.00;101323.72;5052154;28;20044;-65
2023/12/27 08:02:33;;;;;;;8.77;3.70;;;;;;;8.33;100.00;101334.06;5036281;28;20113;-65
2023/12/27 08:04:59;;;;;;;8.38;3.85;;;;;;;8.37;100.00;101324.63;5057199;28;20036;-65
2023/12/27 08:07:24;;;;;;;9.05;4.40;;;;;;;8.40;100.00;101322.09;5057504;28;20064;-64
2023/12/27 08:09:49;;;;;;;9.15;3.95;;;;;;;8.41;100.00;101310.94;5058056;28;20093;-64
2023/12/27 08:12:15;;;;;;;8.45;3.95;;;;;;;8.43;100.00;101317.84;5055039;28;20742;-65
2023/12/27 08:14:40;;;;;;;8.13;4.60;;;;;;;8.46;100.00;101324.72;5059289;28;20036;-65
2023/12/27 08:17:07;;;;;;;7.88;3.60;;;;;;;8.51;100.00;101331.69;5054650;28;21594;-64
2023/12/27 08:19:32;;;;;;;7.75;3.50;;;;;;;8.54;100.00;101329.09;5053277;28;20089;-65
2023/12/27 08:21:58;;;;;;;7.47;3.13;;;;;;;8.57;100.00;101330.88;5059671;28;20048;-64
2023/12/27 08:24:23;;;;;;;9.38;3.75;;;;;;;8.60;100.00;101317.13;5057720;28;20047;-64
2023/12/27 08:26:48;;;;;;;7.47;3.10;;;;;;;8.63;100.00;101305.16;5054027;28;20051;-60
2023/12/27 08:29:14;;;;;;;8.00;3.25;;;;;;;8.65;100.00;101307.72;5054536;28;20044;-60
2023/12/27 08:31:42;;;;;;;7.15;3.92;;;;;;;8.67;100.00;101319.75;5055773;28;20028;-60
2023/12/27 08:34:08;;;;;;;7.78;3.90;;;;;;;8.70;100.00;101322.38;5056737;28;20191;-60
2023/12/27 08:36:34;;;;;;;5.88;3.80;;;;;;;8.72;100.00;101314.66;5059393;28;20040;-61
2023/12/27 08:38:59;;;;;;;15.02;5.05;;;;;;;8.76;100.00;101309.53;5056100;28;20040;-61
2023/12/27 08:41:26;;;;;;;6.50;4.15;;;;;;;8.78;100.00;101310.44;5058362;28;20048;-60
2023/12/27 08:43:52;;;;;;;10.98;5.55;;;;;;;8.84;100.00;101314.75;5039457;28;20040;-60
2023/12/27 08:46:20;;;;;;;10.00;5.13;;;;;;;8.86;100.00;101313.91;5057436;28;20925;-59
2023/12/27 08:48:46;;;;;;;10.57;4.30;;;;;;;8.88;100.00;101309.63;5055977;28;20036;-59
2023/12/27 08:51:12;;;;;;;7.32;3.33;;;;;;;8.89;100.00;101295.88;5053493;28;20107;-60
2023/12/27 08:53:37;;;;;;;6.75;3.15;;;;;;;8.90;100.00;101299.34;5057848;28;20036;-59
2023/12/27 08:56:07;;;;;;;7.22;3.53;;;;;;;8.91;100.00;101293.31;5056982;28;20095;-59
2023/12/27 08:58:32;;;;;;;7.65;3.83;;;;;;;8.92;100.00;101290.75;5052929;28;20036;-59
2023/12/27 09:01:01;;;;;;;9.93;4.10;;;;;;;8.93;100.00;101286.47;5056847;28;20040;-59
2023/12/27 09:03:27;;;;;;;9.30;4.35;;;;;;;8.97;100.00;101295.94;5038957;28;20041;-59
2023/12/27 09:05:52;;;;;;;5.05;3.17;;;;;;;9.00;100.00;101281.34;5055212;28;20093;-59
2023/12/27 09:08:18;;;;;;;8.88;3.22;;;;;;;9.05;100.00;101274.50;5055886;28;20021;-60
2023/12/27 09:10:43;;;;;;;4.90;3.10;;;;;;;9.10;100.00;101275.41;5039921;28;20123;-60
2023/12/27 09:13:09;;;;;;;6.18;2.78;;;;;;;9.16;100.00;101271.13;5054917;28;20036;-59
2023/12/27 09:15:35;;;;;;;7.85;2.80;;;;;;;9.21;100.00;101275.44;5056053;28;20056;-60
2023/12/27 09:18:00;;;;;;;6.32;2.90;;;;;;;9.21;100.00;101272.88;5056599;28;20032;-60
2023/12/27 09:20:25;;;;;;;5.68;2.97;;;;;;;9.26;100.00;101267.75;5054383;28;20797;-59
2023/12/27 09:22:51;;;;;;;5.30;2.78;;;;;;;9.27;100.00;101277.19;5055382;28;20048;-59
2023/12/27 09:25:16;;;;;;;5.82;3.47;;;;;;;9.29;100.00;101272.91;5035242;28;20127;-59
2023/12/27 09:27:44;;;;;;;6.28;2.70;;;;;;;9.32;100.00;101276.34;5054713;28;20082;-60
2023/12/27 09:30:10;;;;;;;4.60;3.08;;;;;;;9.34;100.00;101269.50;5055863;28;21001;-59
2023/12/27 09:32:37;;;;;;;6.75;2.80;;;;;;;9.35;100.00;101270.34;5056436;28;20082;-59
2023/12/27 09:35:02;;;;;;;5.85;4.03;;;;;;;9.38;100.00;101262.63;5056495;28;20093;-61
2023/12/27 09:37:29;;;;;;;7.35;3.60;;;;;;;9.44;100.00;101265.22;5058129;28;20115;-61
2023/12/27 09:39:54;;;;;;;6.57;2.70;;;;;;;9.48;100.00;101262.69;5055299;28;20078;-61
2023/12/27 09:42:19;;;;;;;4.22;2.83;;;;;;;9.44;100.00;101267.81;5056203;28;20571;-62
2023/12/27 09:44:48;;;;;;;7.32;2.60;;;;;;;9.45;100.00;101274.69;5054641;28;20056;-60
2023/12/27 09:47:15;;;;;;;4.97;2.72;;;;;;;9.44;100.00;101279.00;5040366;28;20444;-61
2023/12/27 09:49:41;;;;;;;5.07;2.50;;;;;;;9.46;100.00;101281.59;5055791;28;20032;-62
2023/12/27 09:52:08;;;;;;;6.18;2.80;;;;;;;9.45;100.00;101269.53;5055316;28;20047;-65
2023/12/27 09:54:33;;;;;;;5.55;2.55;;;;;;;9.47;100.00;101272.97;5054412;28;20048;-65
2023/12/27 09:56:59;;;;;;;4.88;2.70;;;;;;;9.47;100.00;101268.69;5056261;28;20665;-61
2023/12/27 09:59:28;;;;;;;5.22;2.72;;;;;;;9.49;100.00;101261.84;5055056;28;20094;-61
2023/12/27 10:01:59;;;;;;;5.70;2.60;;;;;;;9.48;100.00;101256.66;5056163;28;20028;-61
2023/12/27 10:04:39;;;;;;;5.60;2.88;;;;;;;9.51;100.00;101251.50;5053627;28;20036;-61
2023/12/27 10:07:05;;;;;;;5.18;2.80;;;;;;;9.55;100.00;101250.66;5052214;28;20106;-61
2023/12/27 10:09:33;;;;;;;6.15;2.72;;;;;;;9.60;100.00;101246.41;5053848;28;20032;-60
2023/12/27 10:11:59;;;;;;;4.78;2.78;;;;;;;9.63;100.00;101242.13;5051844;28;20044;-61
2023/12/27 10:14:26;;;;;;;5.35;2.00;;;;;;;9.68;100.00;101232.66;5039085;28;20078;-65
2023/12/27 10:16:51;;;;;;;6.60;2.17;;;;;;;9.70;100.00;101224.94;5054807;28;20048;-65
2023/12/27 10:19:36;;;;;;;5.18;2.10;;;;;;;9.74;100.00;101228.38;5055095;28;20040;-66
2023/12/27 10:22:01;;;;;;;6.82;2.42;;;;;;;9.75;100.00;101225.81;5051839;28;20037;-62
2023/12/27 10:24:27;;;;;;;4.47;2.22;;;;;;;9.84;100.00;101225.81;5055172;28;20048;-62
2023/12/27 10:26:57;;;;;;;5.10;2.30;;;;;;;9.85;100.00;101226.69;5055672;28;20036;-60
2023/12/27 10:29:23;;;;;;;3.63;2.33;;;;;;;9.87;100.00;101225.84;5061424;28;20044;-61
2023/12/27 10:31:48;;;;;;;4.50;2.70;;;;;;;9.93;100.00;101231.00;5054691;28;20031;-61
2023/12/27 10:34:14;;;;;;;3.15;2.20;;;;;;;9.95;99.47;101213.78;5054344;28;20135;-60
2023/12/27 10:36:42;;;;;;;4.55;2.05;;;;;;;9.93;99.93;101205.19;5052771;28;20049;-59
2023/12/27 10:39:10;;;;;;;4.90;2.45;;;;;;;9.89;99.69;101221.53;5050103;28;20036;-65
2023/12/27 10:41:39;;;;;;;4.68;2.20;;;;;;;9.89;100.00;101213.78;5054243;28;20139;-65
2023/12/27 10:44:04;;;;;;;5.53;2.05;;;;;;;9.93;100.00;101212.06;5036304;28;20036;-64
2023/12/27 10:46:31;;;;;;;4.97;2.00;;;;;;;9.96;100.00;101200.03;5051028;28;20039;-65
2023/12/27 10:49:04;;;;;;;5.80;2.40;;;;;;;9.98;99.65;101195.72;5053834;28;20477;-65
2023/12/27 10:51:30;;;;;;;3.60;2.22;;;;;;;10.07;99.44;101184.53;5056140;28;20036;-66
2023/12/27 10:54:00;;;;;;;3.22;1.90;;;;;;;10.17;99.22;101184.53;5055646;28;20035;-66
2023/12/27 10:56:26;;;;;;;3.95;2.28;;;;;;;10.24;97.99;101173.31;5037666;28;20044;-65
2023/12/27 10:58:56;;;;;;;5.57;2.20;;;;;;;10.32;97.55;101144.91;5056128;28;20037;-65
2023/12/27 11:01:24;;;;;;;4.20;1.83;;;;;;;10.41;96.72;101137.16;5052918;28;20508;-65
2023/12/27 11:03:51;;;;;;;5.50;1.75;;;;;;;10.54;94.85;101125.03;5050568;28;20910;-64
2023/12/27 11:06:17;;;;;;;4.03;1.35;;;;;;;10.61;93.18;101095.72;5033647;28;20036;-63
2023/12/27 11:08:45;;;;;;;2.03;1.02;;;;;;;10.76;92.09;101111.19;5052357;28;20033;-63
2023/12/27 11:11:13;;;;;;;2.47;0.60;;;;;;;10.78;89.96;101092.22;5054497;28;20044;-62
2023/12/27 11:13:40;;;;;;;2.20;0.70;;;;;;;10.85;89.48;101084.44;5050001;28;20772;-63